sensor_id;sensor_type;location;lat;lon;timestamp;temperature;humidity
40516;DHT22;26216;53.724;9.898;2022-11-20T00:01:14;4.40;97.50
40516;DHT22;26216;53.724;9.898;2022-11-20T00:03:41;4.50;97.50
40516;DHT22;26216;53.724;9.898;2022-11-20T00:06:10;4.50;97.50
40516;DHT22;26216;53.724;9.898;2022-11-20T00:08:37;4.50;97.40
40516;DHT22;26216;53.724;9.898;2022-11-20T00:11:14;4.40;97.40
40516;DHT22;26216;53.724;9.898;2022-11-20T00:13:43;4.40;97.40
40516;DHT22;26216;53.724;9.898;2022-11-20T00:16:12;4.50;97.50
40516;DHT22;26216;53.724;9.898;2022-11-20T00:18:38;4.40;97.40
40516;DHT22;26216;53.724;9.898;2022-11-20T00:21:07;4.50;97.50
40516;DHT22;26216;53.724;9.898;2022-11-20T00:23:35;4.40;97.40
40516;DHT22;26216;53.724;9.898;2022-11-20T00:26:12;4.40;97.40
40516;DHT22;26216;53.724;9.898;2022-11-20T00:28:39;4.40;97.50
40516;DHT22;26216;53.724;9.898;2022-11-20T00:31:13;4.40;97.50
40516;DHT22;26216;53.724;9.898;2022-11-20T00:33:40;4.40;97.50
40516;DHT22;26216;53.724;9.898;2022-11-20T00:36:08;4.40;97.50
40516;DHT22;26216;53.724;9.898;2022-11-20T00:38:35;4.40;97.50
40516;DHT22;26216;53.724;9.898;2022-11-20T00:41:05;4.40;97.50
40516;DHT22;26216;53.724;9.898;2022-11-20T00:43:31;4.40;97.50
40516;DHT22;26216;53.724;9.898;2022-11-20T00:46:05;4.40;97.50
40516;DHT22;26216;53.724;9.898;2022-11-20T00:48:32;4.40;97.50
40516;DHT22;26216;53.724;9.898;2022-11-20T00:50:58;4.40;97.50
40516;DHT22;26216;53.724;9.898;2022-11-20T00:53:24;4.40;97.50
40516;DHT22;26216;53.724;9.898;2022-11-20T00:55:55;4.40;97.50
40516;DHT22;26216;53.724;9.898;2022-11-20T00:58:22;4.30;97.50
40516;DHT22;26216;53.724;9.898;2022-11-20T01:00:48;4.30;97.60
40516;DHT22;26216;53.724;9.898;2022-11-20T01:03:16;4.30;97.60
40516;DHT22;26216;53.724;9.898;2022-11-20T01:05:42;4.30;97.60
40516;DHT22;26216;53.724;9.898;2022-11-20T01:08:08;4.30;97.70
40516;DHT22;26216;53.724;9.898;2022-11-20T01:10:34;4.30;97.70
40516;DHT22;26216;53.724;9.898;2022-11-20T01:13:00;4.30;97.70
40516;DHT22;26216;53.724;9.898;2022-11-20T01:15:45;4.20;97.70
40516;DHT22;26216;53.724;9.898;2022-11-20T01:18:10;4.30;97.80
40516;DHT22;26216;53.724;9.898;2022-11-20T01:20:37;4.30;97.80
40516;DHT22;26216;53.724;9.898;2022-11-20T01:23:03;4.30;97.90
40516;DHT22;26216;53.724;9.898;2022-11-20T01:25:29;4.30;97.90
40516;DHT22;26216;53.724;9.898;2022-11-20T01:27:55;4.20;97.90
40516;DHT22;26216;53.724;9.898;2022-11-20T01:30:21;4.20;97.90
40516;DHT22;26216;53.724;9.898;2022-11-20T01:32:47;4.20;97.90
40516;DHT22;26216;53.724;9.898;2022-11-20T01:35:13;4.20;97.90
40516;DHT22;26216;53.724;9.898;2022-11-20T01:37:39;4.30;98.00
40516;DHT22;26216;53.724;9.898;2022-11-20T01:40:05;4.30;97.90
40516;DHT22;26216;53.724;9.898;2022-11-20T01:42:31;4.20;98.00
40516;DHT22;26216;53.724;9.898;2022-11-20T01:48:40;4.20;98.00
40516;DHT22;26216;53.724;9.898;2022-11-20T01:51:16;4.20;98.00
40516;DHT22;26216;53.724;9.898;2022-11-20T01:53:43;4.20;98.00
40516;DHT22;26216;53.724;9.898;2022-11-20T01:56:10;4.20;98.00
40516;DHT22;26216;53.724;9.898;2022-11-20T01:58:41;4.20;98.10
40516;DHT22;26216;53.724;9.898;2022-11-20T02:01:08;4.20;98.10
40516;DHT22;26216;53.724;9.898;2022-11-20T02:03:34;4.30;98.10
40516;DHT22;26216;53.724;9.898;2022-11-20T02:06:19;4.30;98.10
40516;DHT22;26216;53.724;9.898;2022-11-20T02:08:48;4.30;98.10
40516;DHT22;26216;53.724;9.898;2022-11-20T02:11:14;4.30;98.10
40516;DHT22;26216;53.724;9.898;2022-11-20T02:13:40;4.30;98.40
40516;DHT22;26216;53.724;9.898;2022-11-20T02:18:41;4.40;98.10
40516;DHT22;26216;53.724;9.898;2022-11-20T02:21:13;4.40;98.10
40516;DHT22;26216;53.724;9.898;2022-11-20T02:26:44;4.40;98.10
40516;DHT22;26216;53.724;9.898;2022-11-20T02:29:11;4.30;98.10
40516;DHT22;26216;53.724;9.898;2022-11-20T02:31:40;4.30;98.10
40516;DHT22;26216;53.724;9.898;2022-11-20T02:34:07;4.40;98.10
40516;DHT22;26216;53.724;9.898;2022-11-20T02:36:33;4.40;98.10
40516;DHT22;26216;53.724;9.898;2022-11-20T02:39:01;4.40;98.10
40516;DHT22;26216;53.724;9.898;2022-11-20T02:41:32;4.40;98.10
40516;DHT22;26216;53.724;9.898;2022-11-20T02:43:58;4.40;98.00
40516;DHT22;26216;53.724;9.898;2022-11-20T02:46:24;4.40;98.00
40516;DHT22;26216;53.724;9.898;2022-11-20T02:48:50;4.40;98.10
40516;DHT22;26216;53.724;9.898;2022-11-20T02:51:22;4.40;98.00
40516;DHT22;26216;53.724;9.898;2022-11-20T02:53:48;4.40;98.00
40516;DHT22;26216;53.724;9.898;2022-11-20T02:56:15;4.40;98.00
40516;DHT22;26216;53.724;9.898;2022-11-20T02:58:41;4.40;98.00
40516;DHT22;26216;53.724;9.898;2022-11-20T03:01:07;4.40;98.00
40516;DHT22;26216;53.724;9.898;2022-11-20T03:03:33;4.40;98.00
40516;DHT22;26216;53.724;9.898;2022-11-20T03:05:59;4.40;98.00
40516;DHT22;26216;53.724;9.898;2022-11-20T03:08:25;4.40;98.00
40516;DHT22;26216;53.724;9.898;2022-11-20T03:10:51;4.40;98.00
40516;DHT22;26216;53.724;9.898;2022-11-20T03:13:17;4.40;98.00
40516;DHT22;26216;53.724;9.898;2022-11-20T03:15:43;4.30;97.90
40516;DHT22;26216;53.724;9.898;2022-11-20T03:18:09;4.40;98.00
40516;DHT22;26216;53.724;9.898;2022-11-20T03:20:35;4.30;98.00
40516;DHT22;26216;53.724;9.898;2022-11-20T03:23:01;4.30;98.00
40516;DHT22;26216;53.724;9.898;2022-11-20T03:25:27;4.30;98.00
40516;DHT22;26216;53.724;9.898;2022-11-20T03:27:53;4.30;98.00
40516;DHT22;26216;53.724;9.898;2022-11-20T03:30:19;4.30;98.10
40516;DHT22;26216;53.724;9.898;2022-11-20T03:32:45;4.20;98.10
40516;DHT22;26216;53.724;9.898;2022-11-20T03:35:11;4.30;98.10
40516;DHT22;26216;53.724;9.898;2022-11-20T03:37:37;4.30;98.10
40516;DHT22;26216;53.724;9.898;2022-11-20T03:40:04;4.30;98.10
40516;DHT22;26216;53.724;9.898;2022-11-20T03:42:30;4.30;98.10
40516;DHT22;26216;53.724;9.898;2022-11-20T03:45:11;4.30;98.10
40516;DHT22;26216;53.724;9.898;2022-11-20T03:47:37;4.30;98.10
40516;DHT22;26216;53.724;9.898;2022-11-20T03:50:04;4.20;98.10
40516;DHT22;26216;53.724;9.898;2022-11-20T03:52:29;4.20;98.10
40516;DHT22;26216;53.724;9.898;2022-11-20T03:54:55;4.20;98.10
40516;DHT22;26216;53.724;9.898;2022-11-20T03:57:21;4.30;98.10
40516;DHT22;26216;53.724;9.898;2022-11-20T03:59:47;4.30;98.20
40516;DHT22;26216;53.724;9.898;2022-11-20T04:02:13;4.30;98.10
40516;DHT22;26216;53.724;9.898;2022-11-20T04:04:39;4.30;98.10
40516;DHT22;26216;53.724;9.898;2022-11-20T04:07:05;4.30;98.10
40516;DHT22;26216;53.724;9.898;2022-11-20T04:09:31;4.30;98.10
40516;DHT22;26216;53.724;9.898;2022-11-20T04:11:56;4.30;98.10
40516;DHT22;26216;53.724;9.898;2022-11-20T04:14:22;4.30;98.10
40516;DHT22;26216;53.724;9.898;2022-11-20T04:16:48;4.30;98.10
40516;DHT22;26216;53.724;9.898;2022-11-20T04:19:15;4.30;98.10
40516;DHT22;26216;53.724;9.898;2022-11-20T04:21:43;4.20;98.00
40516;DHT22;26216;53.724;9.898;2022-11-20T04:24:09;4.20;98.00
40516;DHT22;26216;53.724;9.898;2022-11-20T04:26:36;4.20;98.00
40516;DHT22;26216;53.724;9.898;2022-11-20T04:29:03;4.20;98.00
40516;DHT22;26216;53.724;9.898;2022-11-20T04:31:33;4.20;98.10
40516;DHT22;26216;53.724;9.898;2022-11-20T04:34:00;4.20;98.10
40516;DHT22;26216;53.724;9.898;2022-11-20T04:36:27;4.20;98.10
40516;DHT22;26216;53.724;9.898;2022-11-20T04:39:02;4.20;98.10
40516;DHT22;26216;53.724;9.898;2022-11-20T04:41:44;4.20;98.10
40516;DHT22;26216;53.724;9.898;2022-11-20T04:44:10;4.20;98.10
40516;DHT22;26216;53.724;9.898;2022-11-20T04:46:44;4.20;98.10
40516;DHT22;26216;53.724;9.898;2022-11-20T04:49:11;4.20;98.10
40516;DHT22;26216;53.724;9.898;2022-11-20T04:51:37;4.20;98.10
40516;DHT22;26216;53.724;9.898;2022-11-20T04:54:03;4.20;98.10
40516;DHT22;26216;53.724;9.898;2022-11-20T04:56:29;4.20;98.10
40516;DHT22;26216;53.724;9.898;2022-11-20T04:58:55;4.20;98.10
40516;DHT22;26216;53.724;9.898;2022-11-20T05:01:22;4.20;98.00
40516;DHT22;26216;53.724;9.898;2022-11-20T05:03:49;4.20;98.00
40516;DHT22;26216;53.724;9.898;2022-11-20T05:06:18;4.20;98.10
40516;DHT22;26216;53.724;9.898;2022-11-20T05:08:44;4.20;98.10
40516;DHT22;26216;53.724;9.898;2022-11-20T05:11:15;4.20;98.10
40516;DHT22;26216;53.724;9.898;2022-11-20T05:13:41;4.20;98.10
40516;DHT22;26216;53.724;9.898;2022-11-20T05:16:10;4.20;98.10
40516;DHT22;26216;53.724;9.898;2022-11-20T05:18:36;4.20;98.10
40516;DHT22;26216;53.724;9.898;2022-11-20T05:21:03;4.20;98.10
40516;DHT22;26216;53.724;9.898;2022-11-20T05:23:30;4.20;98.10
40516;DHT22;26216;53.724;9.898;2022-11-20T05:25:57;4.20;98.10
40516;DHT22;26216;53.724;9.898;2022-11-20T05:28:24;4.20;98.00
40516;DHT22;26216;53.724;9.898;2022-11-20T05:30:50;4.30;98.10
40516;DHT22;26216;53.724;9.898;2022-11-20T05:33:17;4.30;98.00
40516;DHT22;26216;53.724;9.898;2022-11-20T05:35:43;4.20;98.00
40516;DHT22;26216;53.724;9.898;2022-11-20T05:38:10;4.20;98.00
40516;DHT22;26216;53.724;9.898;2022-11-20T05:40:36;4.20;97.90
40516;DHT22;26216;53.724;9.898;2022-11-20T05:43:02;4.20;97.90
40516;DHT22;26216;53.724;9.898;2022-11-20T05:45:28;4.20;97.90
40516;DHT22;26216;53.724;9.898;2022-11-20T05:47:58;4.20;97.90
40516;DHT22;26216;53.724;9.898;2022-11-20T05:50:24;4.20;97.90
40516;DHT22;26216;53.724;9.898;2022-11-20T05:52:49;4.20;97.90
40516;DHT22;26216;53.724;9.898;2022-11-20T05:55:15;4.20;97.90
40516;DHT22;26216;53.724;9.898;2022-11-20T05:57:41;4.20;97.90
40516;DHT22;26216;53.724;9.898;2022-11-20T06:00:07;4.20;97.90
40516;DHT22;26216;53.724;9.898;2022-11-20T06:02:35;4.10;97.80
40516;DHT22;26216;53.724;9.898;2022-11-20T06:05:01;4.10;97.80
40516;DHT22;26216;53.724;9.898;2022-11-20T06:07:27;4.10;97.70
40516;DHT22;26216;53.724;9.898;2022-11-20T06:09:53;4.00;97.70
40516;DHT22;26216;53.724;9.898;2022-11-20T06:12:18;4.00;97.70
40516;DHT22;26216;53.724;9.898;2022-11-20T06:14:44;3.90;97.70
40516;DHT22;26216;53.724;9.898;2022-11-20T06:17:10;3.90;97.70
40516;DHT22;26216;53.724;9.898;2022-11-20T06:19:36;3.90;97.80
40516;DHT22;26216;53.724;9.898;2022-11-20T06:22:02;3.90;97.80
40516;DHT22;26216;53.724;9.898;2022-11-20T06:24:28;3.80;97.80
40516;DHT22;26216;53.724;9.898;2022-11-20T06:26:54;3.80;97.80
40516;DHT22;26216;53.724;9.898;2022-11-20T06:29:19;3.80;97.90
40516;DHT22;26216;53.724;9.898;2022-11-20T06:31:45;3.80;97.90
40516;DHT22;26216;53.724;9.898;2022-11-20T06:34:11;3.80;98.00
40516;DHT22;26216;53.724;9.898;2022-11-20T06:36:37;3.80;98.00
40516;DHT22;26216;53.724;9.898;2022-11-20T06:39:03;3.80;98.10
40516;DHT22;26216;53.724;9.898;2022-11-20T06:41:29;3.80;98.10
40516;DHT22;26216;53.724;9.898;2022-11-20T06:43:55;3.80;98.20
40516;DHT22;26216;53.724;9.898;2022-11-20T06:46:21;3.80;98.20
40516;DHT22;26216;53.724;9.898;2022-11-20T06:48:48;3.80;98.30
40516;DHT22;26216;53.724;9.898;2022-11-20T06:51:14;3.80;98.30
40516;DHT22;26216;53.724;9.898;2022-11-20T06:53:40;3.80;98.50
40516;DHT22;26216;53.724;9.898;2022-11-20T06:56:06;3.80;98.40
40516;DHT22;26216;53.724;9.898;2022-11-20T06:58:34;3.80;98.50
40516;DHT22;26216;53.724;9.898;2022-11-20T07:01:02;3.70;98.50
40516;DHT22;26216;53.724;9.898;2022-11-20T07:03:28;3.70;98.60
40516;DHT22;26216;53.724;9.898;2022-11-20T07:06:12;3.70;98.60
40516;DHT22;26216;53.724;9.898;2022-11-20T07:08:56;3.70;98.60
40516;DHT22;26216;53.724;9.898;2022-11-20T07:11:41;3.70;98.60
40516;DHT22;26216;53.724;9.898;2022-11-20T07:14:25;3.80;98.70
40516;DHT22;26216;53.724;9.898;2022-11-20T07:17:10;3.80;98.80
40516;DHT22;26216;53.724;9.898;2022-11-20T07:19:55;3.80;98.70
40516;DHT22;26216;53.724;9.898;2022-11-20T07:22:40;3.80;98.70
40516;DHT22;26216;53.724;9.898;2022-11-20T07:25:25;3.80;98.80
40516;DHT22;26216;53.724;9.898;2022-11-20T07:28:10;3.80;98.70
40516;DHT22;26216;53.724;9.898;2022-11-20T07:30:54;3.80;98.70
40516;DHT22;26216;53.724;9.898;2022-11-20T07:33:46;3.80;98.70
40516;DHT22;26216;53.724;9.898;2022-11-20T07:36:30;3.90;98.70
40516;DHT22;26216;53.724;9.898;2022-11-20T07:39:14;3.90;98.70
40516;DHT22;26216;53.724;9.898;2022-11-20T07:41:59;3.90;98.70
40516;DHT22;26216;53.724;9.898;2022-11-20T07:44:43;3.90;98.70
40516;DHT22;26216;53.724;9.898;2022-11-20T07:47:27;3.90;98.70
40516;DHT22;26216;53.724;9.898;2022-11-20T07:50:13;4.00;98.80
40516;DHT22;26216;53.724;9.898;2022-11-20T07:53:03;4.00;98.80
40516;DHT22;26216;53.724;9.898;2022-11-20T07:55:47;3.90;98.80
40516;DHT22;26216;53.724;9.898;2022-11-20T07:58:32;4.00;98.80
40516;DHT22;26216;53.724;9.898;2022-11-20T08:01:18;4.00;98.80
40516;DHT22;26216;53.724;9.898;2022-11-20T08:04:03;4.00;98.80
40516;DHT22;26216;53.724;9.898;2022-11-20T08:06:47;4.00;98.80
40516;DHT22;26216;53.724;9.898;2022-11-20T08:09:32;4.00;98.80
40516;DHT22;26216;53.724;9.898;2022-11-20T08:11:58;4.00;98.80
40516;DHT22;26216;53.724;9.898;2022-11-20T08:14:42;4.00;98.90
40516;DHT22;26216;53.724;9.898;2022-11-20T08:17:08;4.00;99.00
40516;DHT22;26216;53.724;9.898;2022-11-20T08:19:34;4.00;99.00
40516;DHT22;26216;53.724;9.898;2022-11-20T08:22:00;4.00;99.00
40516;DHT22;26216;53.724;9.898;2022-11-20T08:24:26;4.10;99.10
40516;DHT22;26216;53.724;9.898;2022-11-20T08:26:52;4.10;99.10
40516;DHT22;26216;53.724;9.898;2022-11-20T08:29:18;4.10;99.10
40516;DHT22;26216;53.724;9.898;2022-11-20T08:31:44;4.10;99.00
40516;DHT22;26216;53.724;9.898;2022-11-20T08:34:10;4.10;99.10
40516;DHT22;26216;53.724;9.898;2022-11-20T08:36:36;4.10;99.00
40516;DHT22;26216;53.724;9.898;2022-11-20T08:39:02;4.10;99.10
40516;DHT22;26216;53.724;9.898;2022-11-20T08:41:29;4.20;99.10
40516;DHT22;26216;53.724;9.898;2022-11-20T08:44:06;4.20;99.10
40516;DHT22;26216;53.724;9.898;2022-11-20T08:46:37;4.20;99.20
40516;DHT22;26216;53.724;9.898;2022-11-20T08:49:05;4.20;99.10
40516;DHT22;26216;53.724;9.898;2022-11-20T08:51:32;4.20;99.20
40516;DHT22;26216;53.724;9.898;2022-11-20T08:53:59;4.20;99.20
40516;DHT22;26216;53.724;9.898;2022-11-20T08:56:25;4.20;99.20
40516;DHT22;26216;53.724;9.898;2022-11-20T08:58:51;4.20;99.20
40516;DHT22;26216;53.724;9.898;2022-11-20T09:01:23;4.20;99.20
40516;DHT22;26216;53.724;9.898;2022-11-20T09:03:51;4.30;99.30
40516;DHT22;26216;53.724;9.898;2022-11-20T09:06:20;4.30;99.40
40516;DHT22;26216;53.724;9.898;2022-11-20T09:08:52;4.30;99.40
40516;DHT22;26216;53.724;9.898;2022-11-20T09:11:21;4.20;99.40
40516;DHT22;26216;53.724;9.898;2022-11-20T09:13:49;4.30;99.40
40516;DHT22;26216;53.724;9.898;2022-11-20T09:16:19;4.30;99.40
40516;DHT22;26216;53.724;9.898;2022-11-20T09:18:51;4.30;99.60
40516;DHT22;26216;53.724;9.898;2022-11-20T09:21:18;4.30;99.60
40516;DHT22;26216;53.724;9.898;2022-11-20T09:23:45;4.40;99.60
40516;DHT22;26216;53.724;9.898;2022-11-20T09:26:14;4.40;99.50
40516;DHT22;26216;53.724;9.898;2022-11-20T09:28:41;4.30;99.50
40516;DHT22;26216;53.724;9.898;2022-11-20T09:31:09;4.40;99.60
40516;DHT22;26216;53.724;9.898;2022-11-20T09:33:36;4.40;99.60
40516;DHT22;26216;53.724;9.898;2022-11-20T09:36:03;4.40;99.60
40516;DHT22;26216;53.724;9.898;2022-11-20T09:38:31;4.40;99.60
40516;DHT22;26216;53.724;9.898;2022-11-20T09:41:05;4.50;99.70
40516;DHT22;26216;53.724;9.898;2022-11-20T09:43:50;4.40;99.50
40516;DHT22;26216;53.724;9.898;2022-11-20T09:46:28;4.40;99.50
40516;DHT22;26216;53.724;9.898;2022-11-20T09:52:22;4.50;99.50
40516;DHT22;26216;53.724;9.898;2022-11-20T09:54:50;4.50;99.40
40516;DHT22;26216;53.724;9.898;2022-11-20T09:57:29;4.50;99.40
40516;DHT22;26216;53.724;9.898;2022-11-20T10:00:06;4.50;99.30
40516;DHT22;26216;53.724;9.898;2022-11-20T10:02:43;4.50;99.30
40516;DHT22;26216;53.724;9.898;2022-11-20T10:05:40;4.50;99.20
40516;DHT22;26216;53.724;9.898;2022-11-20T10:11:06;4.50;99.40
40516;DHT22;26216;53.724;9.898;2022-11-20T10:17:12;4.50;99.20
40516;DHT22;26216;53.724;9.898;2022-11-20T10:22:32;4.40;99.20
40516;DHT22;26216;53.724;9.898;2022-11-20T10:25:19;4.40;99.10
40516;DHT22;26216;53.724;9.898;2022-11-20T10:31:02;4.40;99.40
40516;DHT22;26216;53.724;9.898;2022-11-20T10:33:35;4.40;99.60
40516;DHT22;26216;53.724;9.898;2022-11-20T10:36:14;4.40;99.50
40516;DHT22;26216;53.724;9.898;2022-11-20T10:39:16;4.40;99.50
40516;DHT22;26216;53.724;9.898;2022-11-20T10:41:50;4.50;99.30
40516;DHT22;26216;53.724;9.898;2022-11-20T10:44:35;4.50;99.20
40516;DHT22;26216;53.724;9.898;2022-11-20T10:47:24;4.50;99.40
40516;DHT22;26216;53.724;9.898;2022-11-20T10:49:54;4.50;99.30
40516;DHT22;26216;53.724;9.898;2022-11-20T10:52:52;4.60;99.20
40516;DHT22;26216;53.724;9.898;2022-11-20T10:55:33;4.60;99.10
40516;DHT22;26216;53.724;9.898;2022-11-20T10:58:19;4.60;98.90
40516;DHT22;26216;53.724;9.898;2022-11-20T11:00:49;4.60;99.10
40516;DHT22;26216;53.724;9.898;2022-11-20T11:03:25;4.60;99.00
40516;DHT22;26216;53.724;9.898;2022-11-20T11:06:01;4.60;98.80
40516;DHT22;26216;53.724;9.898;2022-11-20T11:08:35;4.70;99.00
40516;DHT22;26216;53.724;9.898;2022-11-20T11:11:29;4.70;99.10
40516;DHT22;26216;53.724;9.898;2022-11-20T11:14:15;4.80;99.10
40516;DHT22;26216;53.724;9.898;2022-11-20T11:16:51;4.80;99.00
40516;DHT22;26216;53.724;9.898;2022-11-20T11:19:19;4.80;99.00
40516;DHT22;26216;53.724;9.898;2022-11-20T11:21:50;4.90;98.80
40516;DHT22;26216;53.724;9.898;2022-11-20T11:24:27;4.90;98.50
40516;DHT22;26216;53.724;9.898;2022-11-20T11:27:04;4.90;98.60
40516;DHT22;26216;53.724;9.898;2022-11-20T11:29:39;5.00;98.80
40516;DHT22;26216;53.724;9.898;2022-11-20T11:32:17;5.00;98.80
40516;DHT22;26216;53.724;9.898;2022-11-20T11:34:58;5.10;99.00
40516;DHT22;26216;53.724;9.898;2022-11-20T11:37:26;5.20;99.10
40516;DHT22;26216;53.724;9.898;2022-11-20T11:39:59;5.20;99.00
40516;DHT22;26216;53.724;9.898;2022-11-20T11:42:25;5.30;99.00
40516;DHT22;26216;53.724;9.898;2022-11-20T11:44:59;5.40;98.80
40516;DHT22;26216;53.724;9.898;2022-11-20T11:47:45;5.40;98.40
40516;DHT22;26216;53.724;9.898;2022-11-20T11:53:04;5.50;98.20
40516;DHT22;26216;53.724;9.898;2022-11-20T11:56:22;5.50;97.80
40516;DHT22;26216;53.724;9.898;2022-11-20T11:58:47;5.60;97.90
40516;DHT22;26216;53.724;9.898;2022-11-20T12:01:37;5.60;97.70
40516;DHT22;26216;53.724;9.898;2022-11-20T12:04:29;5.60;97.70
40516;DHT22;26216;53.724;9.898;2022-11-20T12:09:55;5.60;97.30
40516;DHT22;26216;53.724;9.898;2022-11-20T12:12:27;5.70;97.40
40516;DHT22;26216;53.724;9.898;2022-11-20T12:14:56;5.70;97.50
40516;DHT22;26216;53.724;9.898;2022-11-20T12:17:23;5.70;97.60
40516;DHT22;26216;53.724;9.898;2022-11-20T12:19:50;5.70;97.30
40516;DHT22;26216;53.724;9.898;2022-11-20T12:22:28;5.80;97.50
40516;DHT22;26216;53.724;9.898;2022-11-20T12:27:45;5.80;97.40
40516;DHT22;26216;53.724;9.898;2022-11-20T12:30:22;5.80;97.40
40516;DHT22;26216;53.724;9.898;2022-11-20T12:35:54;5.90;97.30
40516;DHT22;26216;53.724;9.898;2022-11-20T12:43:59;6.00;97.10
40516;DHT22;26216;53.724;9.898;2022-11-20T12:47:15;6.00;96.80
40516;DHT22;26216;53.724;9.898;2022-11-20T12:52:47;6.00;96.90
40516;DHT22;26216;53.724;9.898;2022-11-20T12:55:25;6.10;96.80
40516;DHT22;26216;53.724;9.898;2022-11-20T12:58:02;6.10;96.80
40516;DHT22;26216;53.724;9.898;2022-11-20T13:00:31;6.00;96.60
40516;DHT22;26216;53.724;9.898;2022-11-20T13:08:35;6.00;95.70
40516;DHT22;26216;53.724;9.898;2022-11-20T13:16:19;6.00;96.20
40516;DHT22;26216;53.724;9.898;2022-11-20T13:18:45;5.90;96.20
40516;DHT22;26216;53.724;9.898;2022-11-20T13:21:21;5.90;96.40
40516;DHT22;26216;53.724;9.898;2022-11-20T13:23:47;5.90;96.10
40516;DHT22;26216;53.724;9.898;2022-11-20T13:26:22;5.90;96.30
40516;DHT22;26216;53.724;9.898;2022-11-20T13:29:23;5.90;96.20
40516;DHT22;26216;53.724;9.898;2022-11-20T13:31:49;6.00;96.30
40516;DHT22;26216;53.724;9.898;2022-11-20T13:34:26;6.00;96.50
40516;DHT22;26216;53.724;9.898;2022-11-20T13:36:55;6.00;96.50
40516;DHT22;26216;53.724;9.898;2022-11-20T13:39:33;6.00;96.50
40516;DHT22;26216;53.724;9.898;2022-11-20T13:42:02;6.00;96.50
40516;DHT22;26216;53.724;9.898;2022-11-20T13:44:43;6.00;96.40
40516;DHT22;26216;53.724;9.898;2022-11-20T13:47:28;6.10;96.50
40516;DHT22;26216;53.724;9.898;2022-11-20T13:49:59;6.10;96.40
40516;DHT22;26216;53.724;9.898;2022-11-20T13:55:12;6.10;96.30
40516;DHT22;26216;53.724;9.898;2022-11-20T14:00:21;6.10;96.10
40516;DHT22;26216;53.724;9.898;2022-11-20T14:03:18;6.10;96.50
40516;DHT22;26216;53.724;9.898;2022-11-20T14:05:59;6.10;96.20
40516;DHT22;26216;53.724;9.898;2022-11-20T14:08:32;6.10;96.20
40516;DHT22;26216;53.724;9.898;2022-11-20T14:11:15;6.10;96.00
40516;DHT22;26216;53.724;9.898;2022-11-20T14:13:52;6.10;96.00
40516;DHT22;26216;53.724;9.898;2022-11-20T14:16:20;6.10;95.80
40516;DHT22;26216;53.724;9.898;2022-11-20T14:18:46;6.00;95.80
40516;DHT22;26216;53.724;9.898;2022-11-20T14:21:25;6.00;95.90
40516;DHT22;26216;53.724;9.898;2022-11-20T14:24:04;6.00;95.90
40516;DHT22;26216;53.724;9.898;2022-11-20T14:26:31;6.00;96.00
40516;DHT22;26216;53.724;9.898;2022-11-20T14:28:59;5.90;96.00
40516;DHT22;26216;53.724;9.898;2022-11-20T14:31:26;5.90;95.90
40516;DHT22;26216;53.724;9.898;2022-11-20T14:33:54;5.90;96.00
40516;DHT22;26216;53.724;9.898;2022-11-20T14:36:23;5.90;96.10
40516;DHT22;26216;53.724;9.898;2022-11-20T14:38:51;5.90;96.20
40516;DHT22;26216;53.724;9.898;2022-11-20T14:41:20;5.90;96.20
40516;DHT22;26216;53.724;9.898;2022-11-20T14:43:59;5.90;96.10
40516;DHT22;26216;53.724;9.898;2022-11-20T14:46:26;5.90;96.20
40516;DHT22;26216;53.724;9.898;2022-11-20T14:48:57;5.90;96.20
40516;DHT22;26216;53.724;9.898;2022-11-20T14:51:35;5.90;96.30
40516;DHT22;26216;53.724;9.898;2022-11-20T14:54:20;5.90;96.30
40516;DHT22;26216;53.724;9.898;2022-11-20T14:56:55;5.90;96.30
40516;DHT22;26216;53.724;9.898;2022-11-20T14:59:26;5.90;96.30
40516;DHT22;26216;53.724;9.898;2022-11-20T15:02:08;5.90;96.30
40516;DHT22;26216;53.724;9.898;2022-11-20T15:04:48;5.80;96.20
40516;DHT22;26216;53.724;9.898;2022-11-20T15:07:44;5.80;96.10
40516;DHT22;26216;53.724;9.898;2022-11-20T15:10:25;5.80;96.20
40516;DHT22;26216;53.724;9.898;2022-11-20T15:12:53;5.80;96.20
40516;DHT22;26216;53.724;9.898;2022-11-20T15:15:31;5.80;96.30
40516;DHT22;26216;53.724;9.898;2022-11-20T15:17:59;5.70;96.30
40516;DHT22;26216;53.724;9.898;2022-11-20T15:20:28;5.70;96.30
40516;DHT22;26216;53.724;9.898;2022-11-20T15:22:55;5.70;96.30
40516;DHT22;26216;53.724;9.898;2022-11-20T15:25:21;5.70;96.30
40516;DHT22;26216;53.724;9.898;2022-11-20T15:27:52;5.60;96.30
40516;DHT22;26216;53.724;9.898;2022-11-20T15:30:25;5.60;96.30
40516;DHT22;26216;53.724;9.898;2022-11-20T15:32:51;5.60;96.30
40516;DHT22;26216;53.724;9.898;2022-11-20T15:35:17;5.60;96.30
40516;DHT22;26216;53.724;9.898;2022-11-20T15:37:43;5.60;96.40
40516;DHT22;26216;53.724;9.898;2022-11-20T15:40:11;5.50;96.40
40516;DHT22;26216;53.724;9.898;2022-11-20T15:42:37;5.50;96.40
40516;DHT22;26216;53.724;9.898;2022-11-20T15:45:03;5.50;96.40
40516;DHT22;26216;53.724;9.898;2022-11-20T15:47:33;5.50;96.40
40516;DHT22;26216;53.724;9.898;2022-11-20T15:50:00;5.50;96.50
40516;DHT22;26216;53.724;9.898;2022-11-20T15:52:26;5.40;96.50
40516;DHT22;26216;53.724;9.898;2022-11-20T15:54:52;5.40;96.50
40516;DHT22;26216;53.724;9.898;2022-11-20T15:57:18;5.40;96.50
40516;DHT22;26216;53.724;9.898;2022-11-20T15:59:44;5.40;96.50
40516;DHT22;26216;53.724;9.898;2022-11-20T16:02:11;5.40;96.50
40516;DHT22;26216;53.724;9.898;2022-11-20T16:04:38;5.40;96.60
40516;DHT22;26216;53.724;9.898;2022-11-20T16:07:05;5.30;96.60
40516;DHT22;26216;53.724;9.898;2022-11-20T16:09:31;5.40;96.60
40516;DHT22;26216;53.724;9.898;2022-11-20T16:11:57;5.30;96.60
40516;DHT22;26216;53.724;9.898;2022-11-20T16:14:27;5.30;96.60
40516;DHT22;26216;53.724;9.898;2022-11-20T16:17:12;5.30;96.60
40516;DHT22;26216;53.724;9.898;2022-11-20T16:19:38;5.30;96.60
40516;DHT22;26216;53.724;9.898;2022-11-20T16:22:04;5.30;96.70
40516;DHT22;26216;53.724;9.898;2022-11-20T16:24:30;5.20;96.60
40516;DHT22;26216;53.724;9.898;2022-11-20T16:26:57;5.20;96.70
40516;DHT22;26216;53.724;9.898;2022-11-20T16:29:23;5.20;96.70
40516;DHT22;26216;53.724;9.898;2022-11-20T16:31:48;5.20;96.70
40516;DHT22;26216;53.724;9.898;2022-11-20T16:34:16;5.20;96.70
40516;DHT22;26216;53.724;9.898;2022-11-20T16:36:43;5.10;96.70
40516;DHT22;26216;53.724;9.898;2022-11-20T16:39:11;5.10;96.80
40516;DHT22;26216;53.724;9.898;2022-11-20T16:41:37;5.10;96.80
40516;DHT22;26216;53.724;9.898;2022-11-20T16:44:08;5.10;96.80
40516;DHT22;26216;53.724;9.898;2022-11-20T16:46:35;5.10;96.80
40516;DHT22;26216;53.724;9.898;2022-11-20T16:49:04;5.10;96.80
40516;DHT22;26216;53.724;9.898;2022-11-20T16:51:33;5.10;96.80
40516;DHT22;26216;53.724;9.898;2022-11-20T16:54:01;5.00;96.80
40516;DHT22;26216;53.724;9.898;2022-11-20T16:56:27;5.10;96.80
40516;DHT22;26216;53.724;9.898;2022-11-20T16:58:55;5.00;96.80
40516;DHT22;26216;53.724;9.898;2022-11-20T17:01:23;5.00;96.90
40516;DHT22;26216;53.724;9.898;2022-11-20T17:04:00;5.00;96.90
40516;DHT22;26216;53.724;9.898;2022-11-20T17:06:31;5.00;96.90
40516;DHT22;26216;53.724;9.898;2022-11-20T17:08:58;5.00;96.90
40516;DHT22;26216;53.724;9.898;2022-11-20T17:11:25;5.00;97.00